sensor_id;sensor_type;location;lat;lon;timestamp;temperature;humidity
18047;DHT22;9148;51.454;13.862;2023-04-01T00:00:45;9.50;99.90
18047;DHT22;9148;51.454;13.862;2023-04-01T00:03:11;9.60;99.90
18047;DHT22;9148;51.454;13.862;2023-04-01T00:05:37;9.50;99.90
18047;DHT22;9148;51.454;13.862;2023-04-01T00:08:03;9.50;99.90
18047;DHT22;9148;51.454;13.862;2023-04-01T00:10:28;9.50;99.90
18047;DHT22;9148;51.454;13.862;2023-04-01T00:12:54;9.50;99.90
18047;DHT22;9148;51.454;13.862;2023-04-01T00:15:20;9.50;99.90
18047;DHT22;9148;51.454;13.862;2023-04-01T00:17:46;10.00;99.90
18047;DHT22;9148;51.454;13.862;2023-04-01T00:20:12;9.50;99.90
18047;DHT22;9148;51.454;13.862;2023-04-01T00:22:40;9.50;99.90
18047;DHT22;9148;51.454;13.862;2023-04-01T00:25:06;9.50;99.90
18047;DHT22;9148;51.454;13.862;2023-04-01T00:27:32;9.50;99.90
18047;DHT22;9148;51.454;13.862;2023-04-01T00:29:58;9.50;99.90
18047;DHT22;9148;51.454;13.862;2023-04-01T00:32:24;9.50;99.90
18047;DHT22;9148;51.454;13.862;2023-04-01T00:34:51;9.40;99.90
18047;DHT22;9148;51.454;13.862;2023-04-01T00:37:18;9.40;99.90
18047;DHT22;9148;51.454;13.862;2023-04-01T00:39:45;9.40;99.90
18047;DHT22;9148;51.454;13.862;2023-04-01T00:42:11;9.40;99.90
18047;DHT22;9148;51.454;13.862;2023-04-01T00:44:38;9.40;99.90
18047;DHT22;9148;51.454;13.862;2023-04-01T00:47:04;9.40;99.90
18047;DHT22;9148;51.454;13.862;2023-04-01T00:49:39;9.40;99.90
18047;DHT22;9148;51.454;13.862;2023-04-01T00:52:11;9.30;99.90
18047;DHT22;9148;51.454;13.862;2023-04-01T00:54:39;9.40;99.90
18047;DHT22;9148;51.454;13.862;2023-04-01T00:57:27;9.40;99.90
18047;DHT22;9148;51.454;13.862;2023-04-01T00:59:56;9.40;99.90
18047;DHT22;9148;51.454;13.862;2023-04-01T01:02:23;9.30;99.90
18047;DHT22;9148;51.454;13.862;2023-04-01T01:04:50;9.30;99.90
18047;DHT22;9148;51.454;13.862;2023-04-01T01:10:14;9.30;99.90
18047;DHT22;9148;51.454;13.862;2023-04-01T01:13:04;9.40;99.90
18047;DHT22;9148;51.454;13.862;2023-04-01T01:15:51;9.30;99.90
18047;DHT22;9148;51.454;13.862;2023-04-01T01:21:30;9.40;99.90
18047;DHT22;9148;51.454;13.862;2023-04-01T01:24:26;9.40;99.90
18047;DHT22;9148;51.454;13.862;2023-04-01T01:27:02;9.40;99.90
18047;DHT22;9148;51.454;13.862;2023-04-01T01:30:04;9.40;99.90
18047;DHT22;9148;51.454;13.862;2023-04-01T01:33:07;9.40;99.90
18047;DHT22;9148;51.454;13.862;2023-04-01T01:35:51;9.40;99.90
18047;DHT22;9148;51.454;13.862;2023-04-01T01:38:23;9.40;99.90
18047;DHT22;9148;51.454;13.862;2023-04-01T01:40:52;9.40;99.90
18047;DHT22;9148;51.454;13.862;2023-04-01T01:43:25;9.30;99.90
18047;DHT22;9148;51.454;13.862;2023-04-01T01:45:56;9.40;99.90
18047;DHT22;9148;51.454;13.862;2023-04-01T01:48:24;9.40;99.90
18047;DHT22;9148;51.454;13.862;2023-04-01T01:50:52;9.40;99.90
18047;DHT22;9148;51.454;13.862;2023-04-01T01:53:18;9.40;99.90
18047;DHT22;9148;51.454;13.862;2023-04-01T01:55:45;9.40;99.90
18047;DHT22;9148;51.454;13.862;2023-04-01T01:58:27;9.40;99.90
18047;DHT22;9148;51.454;13.862;2023-04-01T02:01:01;9.40;99.90
18047;DHT22;9148;51.454;13.862;2023-04-01T02:03:31;9.40;99.90
18047;DHT22;9148;51.454;13.862;2023-04-01T02:06:00;9.40;99.90
18047;DHT22;9148;51.454;13.862;2023-04-01T02:08:52;9.40;99.90
18047;DHT22;9148;51.454;13.862;2023-04-01T02:11:37;9.40;99.90
18047;DHT22;9148;51.454;13.862;2023-04-01T02:14:10;9.40;99.90
18047;DHT22;9148;51.454;13.862;2023-04-01T02:16:51;9.40;99.90
18047;DHT22;9148;51.454;13.862;2023-04-01T02:19:27;9.40;99.90
18047;DHT22;9148;51.454;13.862;2023-04-01T02:22:02;9.40;99.90
18047;DHT22;9148;51.454;13.862;2023-04-01T02:24:30;9.40;99.90
18047;DHT22;9148;51.454;13.862;2023-04-01T02:26:57;9.40;99.90
18047;DHT22;9148;51.454;13.862;2023-04-01T02:29:24;9.40;99.90
18047;DHT22;9148;51.454;13.862;2023-04-01T02:31:51;9.40;99.90
18047;DHT22;9148;51.454;13.862;2023-04-01T02:34:19;9.40;99.90
18047;DHT22;9148;51.454;13.862;2023-04-01T02:36:55;9.40;99.90
18047;DHT22;9148;51.454;13.862;2023-04-01T02:39:22;9.40;99.90
18047;DHT22;9148;51.454;13.862;2023-04-01T02:41:48;9.40;99.90
18047;DHT22;9148;51.454;13.862;2023-04-01T02:44:14;9.40;99.90
18047;DHT22;9148;51.454;13.862;2023-04-01T02:46:41;9.40;99.90
18047;DHT22;9148;51.454;13.862;2023-04-01T02:49:06;9.40;99.90
18047;DHT22;9148;51.454;13.862;2023-04-01T02:51:33;9.30;99.90
18047;DHT22;9148;51.454;13.862;2023-04-01T02:53:59;9.40;99.90
18047;DHT22;9148;51.454;13.862;2023-04-01T02:56:25;9.30;99.90
18047;DHT22;9148;51.454;13.862;2023-04-01T02:58:51;9.40;99.90
18047;DHT22;9148;51.454;13.862;2023-04-01T03:01:17;9.30;99.90
18047;DHT22;9148;51.454;13.862;2023-04-01T03:03:43;9.30;99.90
18047;DHT22;9148;51.454;13.862;2023-04-01T03:06:11;9.40;99.90
18047;DHT22;9148;51.454;13.862;2023-04-01T03:08:38;9.30;99.90
18047;DHT22;9148;51.454;13.862;2023-04-01T03:11:04;9.30;99.90
18047;DHT22;9148;51.454;13.862;2023-04-01T03:13:30;9.30;99.90
18047;DHT22;9148;51.454;13.862;2023-04-01T03:15:56;9.30;99.90
18047;DHT22;9148;51.454;13.862;2023-04-01T03:18:21;9.30;99.90
18047;DHT22;9148;51.454;13.862;2023-04-01T03:20:47;9.30;99.90
18047;DHT22;9148;51.454;13.862;2023-04-01T03:23:13;9.30;99.90
18047;DHT22;9148;51.454;13.862;2023-04-01T03:25:38;9.30;99.90
18047;DHT22;9148;51.454;13.862;2023-04-01T03:28:04;9.30;99.90
18047;DHT22;9148;51.454;13.862;2023-04-01T03:30:30;9.30;99.90
18047;DHT22;9148;51.454;13.862;2023-04-01T03:32:57;9.30;99.90
18047;DHT22;9148;51.454;13.862;2023-04-01T03:35:23;9.30;99.90
18047;DHT22;9148;51.454;13.862;2023-04-01T03:37:50;9.20;99.90
18047;DHT22;9148;51.454;13.862;2023-04-01T03:40:18;9.30;99.90
18047;DHT22;9148;51.454;13.862;2023-04-01T03:42:44;9.20;99.90
18047;DHT22;9148;51.454;13.862;2023-04-01T03:45:10;9.30;99.90
18047;DHT22;9148;51.454;13.862;2023-04-01T03:47:37;9.20;99.90
18047;DHT22;9148;51.454;13.862;2023-04-01T03:50:04;9.30;99.90
18047;DHT22;9148;51.454;13.862;2023-04-01T03:52:31;9.30;99.90
18047;DHT22;9148;51.454;13.862;2023-04-01T03:54:57;9.20;99.90
18047;DHT22;9148;51.454;13.862;2023-04-01T03:57:22;9.20;99.90
18047;DHT22;9148;51.454;13.862;2023-04-01T03:59:48;9.30;99.90
18047;DHT22;9148;51.454;13.862;2023-04-01T04:02:14;9.20;99.90
18047;DHT22;9148;51.454;13.862;2023-04-01T04:04:39;9.20;99.90
18047;DHT22;9148;51.454;13.862;2023-04-01T04:07:06;9.20;99.90
18047;DHT22;9148;51.454;13.862;2023-04-01T04:09:32;9.20;99.90
18047;DHT22;9148;51.454;13.862;2023-04-01T04:11:58;9.30;99.90
18047;DHT22;9148;51.454;13.862;2023-04-01T04:14:24;9.30;99.90
18047;DHT22;9148;51.454;13.862;2023-04-01T04:16:50;9.20;99.90
18047;DHT22;9148;51.454;13.862;2023-04-01T04:19:16;9.20;99.90
18047;DHT22;9148;51.454;13.862;2023-04-01T04:21:42;9.20;99.90
18047;DHT22;9148;51.454;13.862;2023-04-01T04:24:08;9.20;99.90
18047;DHT22;9148;51.454;13.862;2023-04-01T04:26:34;9.20;99.90
18047;DHT22;9148;51.454;13.862;2023-04-01T04:29:00;9.20;99.90
18047;DHT22;9148;51.454;13.862;2023-04-01T04:31:27;9.20;99.90
18047;DHT22;9148;51.454;13.862;2023-04-01T04:33:53;9.20;99.90
18047;DHT22;9148;51.454;13.862;2023-04-01T04:36:19;9.10;99.90
18047;DHT22;9148;51.454;13.862;2023-04-01T04:38:46;9.20;99.90
18047;DHT22;9148;51.454;13.862;2023-04-01T04:41:13;9.10;99.90
18047;DHT22;9148;51.454;13.862;2023-04-01T04:43:40;9.20;99.90
18047;DHT22;9148;51.454;13.862;2023-04-01T04:46:08;9.20;99.90
18047;DHT22;9148;51.454;13.862;2023-04-01T04:48:35;9.20;99.90
18047;DHT22;9148;51.454;13.862;2023-04-01T04:51:01;9.20;99.90
18047;DHT22;9148;51.454;13.862;2023-04-01T04:53:27;9.20;99.90
18047;DHT22;9148;51.454;13.862;2023-04-01T04:55:53;9.30;99.90
18047;DHT22;9148;51.454;13.862;2023-04-01T04:58:19;9.30;99.90
18047;DHT22;9148;51.454;13.862;2023-04-01T05:00:45;9.30;99.90
18047;DHT22;9148;51.454;13.862;2023-04-01T05:03:11;9.30;99.90
18047;DHT22;9148;51.454;13.862;2023-04-01T05:05:38;9.30;99.90
18047;DHT22;9148;51.454;13.862;2023-04-01T05:08:04;9.30;99.90
18047;DHT22;9148;51.454;13.862;2023-04-01T05:10:30;9.30;99.90
18047;DHT22;9148;51.454;13.862;2023-04-01T05:12:56;9.30;99.90
18047;DHT22;9148;51.454;13.862;2023-04-01T05:15:23;9.30;99.90
18047;DHT22;9148;51.454;13.862;2023-04-01T05:17:49;9.30;99.90
18047;DHT22;9148;51.454;13.862;2023-04-01T05:20:15;9.30;99.90
18047;DHT22;9148;51.454;13.862;2023-04-01T05:22:42;9.30;99.90
18047;DHT22;9148;51.454;13.862;2023-04-01T05:25:07;9.40;99.90
18047;DHT22;9148;51.454;13.862;2023-04-01T05:27:33;9.40;99.90
18047;DHT22;9148;51.454;13.862;2023-04-01T05:29:59;9.40;99.90
18047;DHT22;9148;51.454;13.862;2023-04-01T05:32:24;9.40;99.90
18047;DHT22;9148;51.454;13.862;2023-04-01T05:34:51;9.50;99.90
18047;DHT22;9148;51.454;13.862;2023-04-01T05:37:17;9.60;99.90
18047;DHT22;9148;51.454;13.862;2023-04-01T05:39:43;9.60;99.90
18047;DHT22;9148;51.454;13.862;2023-04-01T05:42:08;9.60;99.90
18047;DHT22;9148;51.454;13.862;2023-04-01T05:44:35;9.70;99.90
18047;DHT22;9148;51.454;13.862;2023-04-01T05:47:02;9.70;99.90
18047;DHT22;9148;51.454;13.862;2023-04-01T05:49:28;9.80;99.90
18047;DHT22;9148;51.454;13.862;2023-04-01T05:51:54;9.70;99.90
18047;DHT22;9148;51.454;13.862;2023-04-01T05:54:20;9.80;99.90
18047;DHT22;9148;51.454;13.862;2023-04-01T05:56:46;9.80;99.90
18047;DHT22;9148;51.454;13.862;2023-04-01T05:59:12;9.90;99.90
18047;DHT22;9148;51.454;13.862;2023-04-01T06:01:39;9.90;99.90
18047;DHT22;9148;51.454;13.862;2023-04-01T06:04:04;10.40;99.90
18047;DHT22;9148;51.454;13.862;2023-04-01T06:06:31;10.00;99.90
18047;DHT22;9148;51.454;13.862;2023-04-01T06:09:19;10.00;99.90
18047;DHT22;9148;51.454;13.862;2023-04-01T06:20:15;10.00;99.90
18047;DHT22;9148;51.454;13.862;2023-04-01T06:23:01;10.00;99.90
18047;DHT22;9148;51.454;13.862;2023-04-01T06:26:17;10.10;99.90
18047;DHT22;9148;51.454;13.862;2023-04-01T06:29:11;10.20;99.90
18047;DHT22;9148;51.454;13.862;2023-04-01T06:32:11;10.30;99.90
18047;DHT22;9148;51.454;13.862;2023-04-01T06:35:16;10.40;99.90
18047;DHT22;9148;51.454;13.862;2023-04-01T06:38:12;10.50;99.90
18047;DHT22;9148;51.454;13.862;2023-04-01T06:40:50;10.50;99.90
18047;DHT22;9148;51.454;13.862;2023-04-01T06:43:49;10.60;99.90
18047;DHT22;9148;51.454;13.862;2023-04-01T06:46:59;10.70;99.90
18047;DHT22;9148;51.454;13.862;2023-04-01T06:52:45;10.80;99.90
18047;DHT22;9148;51.454;13.862;2023-04-01T06:55:39;10.80;99.90
18047;DHT22;9148;51.454;13.862;2023-04-01T06:58:21;10.90;99.90
18047;DHT22;9148;51.454;13.862;2023-04-01T07:01:32;11.10;99.90
18047;DHT22;9148;51.454;13.862;2023-04-01T07:04:06;11.10;99.90
18047;DHT22;9148;51.454;13.862;2023-04-01T07:06:43;11.10;99.90
18047;DHT22;9148;51.454;13.862;2023-04-01T07:09:25;11.10;99.90
18047;DHT22;9148;51.454;13.862;2023-04-01T07:11:59;11.10;99.90
18047;DHT22;9148;51.454;13.862;2023-04-01T07:14:36;11.00;99.90
18047;DHT22;9148;51.454;13.862;2023-04-01T07:17:11;11.00;99.90
18047;DHT22;9148;51.454;13.862;2023-04-01T07:19:47;11.00;99.90
18047;DHT22;9148;51.454;13.862;2023-04-01T07:22:21;11.00;99.90
18047;DHT22;9148;51.454;13.862;2023-04-01T07:25:05;11.00;99.90
18047;DHT22;9148;51.454;13.862;2023-04-01T07:27:37;11.00;99.90
18047;DHT22;9148;51.454;13.862;2023-04-01T07:30:16;11.00;99.90
18047;DHT22;9148;51.454;13.862;2023-04-01T07:33:12;11.00;99.90
18047;DHT22;9148;51.454;13.862;2023-04-01T07:41:23;11.10;99.90
18047;DHT22;9148;51.454;13.862;2023-04-01T07:44:47;11.00;99.90
18047;DHT22;9148;51.454;13.862;2023-04-01T07:48:05;10.90;99.90
18047;DHT22;9148;51.454;13.862;2023-04-01T07:56:18;10.70;99.90
18047;DHT22;9148;51.454;13.862;2023-04-01T07:59:09;10.70;99.90
18047;DHT22;9148;51.454;13.862;2023-04-01T08:07:20;10.70;99.90
18047;DHT22;9148;51.454;13.862;2023-04-01T08:09:59;10.70;99.90
18047;DHT22;9148;51.454;13.862;2023-04-01T08:15:17;10.80;99.90
18047;DHT22;9148;51.454;13.862;2023-04-01T08:18:15;10.90;99.90
18047;DHT22;9148;51.454;13.862;2023-04-01T08:23:37;11.00;99.90
18047;DHT22;9148;51.454;13.862;2023-04-01T08:29:17;11.00;99.90
18047;DHT22;9148;51.454;13.862;2023-04-01T08:32:00;11.10;99.90
18047;DHT22;9148;51.454;13.862;2023-04-01T08:34:38;11.10;99.90
18047;DHT22;9148;51.454;13.862;2023-04-01T08:37:14;11.20;99.90
18047;DHT22;9148;51.454;13.862;2023-04-01T08:39:49;11.20;99.90
18047;DHT22;9148;51.454;13.862;2023-04-01T08:43:15;11.30;99.90
18047;DHT22;9148;51.454;13.862;2023-04-01T08:45:36;11.40;99.90
18047;DHT22;9148;51.454;13.862;2023-04-01T08:48:41;11.50;99.90
18047;DHT22;9148;51.454;13.862;2023-04-01T08:54:42;11.60;99.90
18047;DHT22;9148;51.454;13.862;2023-04-01T09:00:29;11.60;99.90
18047;DHT22;9148;51.454;13.862;2023-04-01T09:08:53;11.50;99.90
18047;DHT22;9148;51.454;13.862;2023-04-01T09:12:03;11.40;99.90
18047;DHT22;9148;51.454;13.862;2023-04-01T09:15:19;11.50;99.90
18047;DHT22;9148;51.454;13.862;2023-04-01T09:27:34;11.80;99.90
18047;DHT22;9148;51.454;13.862;2023-04-01T09:36:38;12.20;99.90
18047;DHT22;9148;51.454;13.862;2023-04-01T09:48:33;12.50;99.90
18047;DHT22;9148;51.454;13.862;2023-04-01T09:54:07;12.60;99.90
18047;DHT22;9148;51.454;13.862;2023-04-01T10:04:04;12.50;99.90
18047;DHT22;9148;51.454;13.862;2023-04-01T10:07:31;12.50;99.90
18047;DHT22;9148;51.454;13.862;2023-04-01T10:10:20;12.40;99.90
18047;DHT22;9148;51.454;13.862;2023-04-01T10:13:26;12.40;99.90
18047;DHT22;9148;51.454;13.862;2023-04-01T10:20:05;12.40;99.90
18047;DHT22;9148;51.454;13.862;2023-04-01T10:26:18;12.40;99.90
18047;DHT22;9148;51.454;13.862;2023-04-01T10:32:04;12.50;99.90
18047;DHT22;9148;51.454;13.862;2023-04-01T10:34:53;12.50;99.90
18047;DHT22;9148;51.454;13.862;2023-04-01T10:37:42;12.50;99.90
18047;DHT22;9148;51.454;13.862;2023-04-01T10:53:10;12.80;99.90
18047;DHT22;9148;51.454;13.862;2023-04-01T11:02:35;12.80;99.90
18047;DHT22;9148;51.454;13.862;2023-04-01T11:05:35;12.80;99.90
18047;DHT22;9148;51.454;13.862;2023-04-01T11:11:46;13.00;99.90
18047;DHT22;9148;51.454;13.862;2023-04-01T11:15:01;13.10;99.90
18047;DHT22;9148;51.454;13.862;2023-04-01T11:18:00;13.30;99.90
18047;DHT22;9148;51.454;13.862;2023-04-01T11:31:54;13.60;99.90
18047;DHT22;9148;51.454;13.862;2023-04-01T11:34:47;13.60;99.90
18047;DHT22;9148;51.454;13.862;2023-04-01T11:37:28;13.60;99.90
18047;DHT22;9148;51.454;13.862;2023-04-01T11:40:38;13.60;99.90
18047;DHT22;9148;51.454;13.862;2023-04-01T11:46:37;13.70;99.90
18047;DHT22;9148;51.454;13.862;2023-04-01T11:49:40;13.70;99.90
18047;DHT22;9148;51.454;13.862;2023-04-01T11:52:33;13.70;99.90
18047;DHT22;9148;51.454;13.862;2023-04-01T11:55:10;13.70;99.90
18047;DHT22;9148;51.454;13.862;2023-04-01T11:58:28;13.70;99.90
18047;DHT22;9148;51.454;13.862;2023-04-01T12:01:16;13.70;99.90
18047;DHT22;9148;51.454;13.862;2023-04-01T12:07:11;13.60;99.90
18047;DHT22;9148;51.454;13.862;2023-04-01T12:13:04;13.60;99.90
18047;DHT22;9148;51.454;13.862;2023-04-01T12:15:53;13.50;99.90
18047;DHT22;9148;51.454;13.862;2023-04-01T12:24:46;13.50;99.90
18047;DHT22;9148;51.454;13.862;2023-04-01T12:27:31;13.60;99.90
18047;DHT22;9148;51.454;13.862;2023-04-01T12:30:39;13.80;99.90
18047;DHT22;9148;51.454;13.862;2023-04-01T12:39:29;13.30;99.90
18047;DHT22;9148;51.454;13.862;2023-04-01T13:06:18;12.80;99.90
18047;DHT22;9148;51.454;13.862;2023-04-01T13:17:33;12.60;99.90
18047;DHT22;9148;51.454;13.862;2023-04-01T13:20:34;12.40;99.90
18047;DHT22;9148;51.454;13.862;2023-04-01T13:23:33;12.30;99.90
18047;DHT22;9148;51.454;13.862;2023-04-01T13:26:52;12.20;99.90
18047;DHT22;9148;51.454;13.862;2023-04-01T13:29:57;12.10;99.90
18047;DHT22;9148;51.454;13.862;2023-04-01T13:32:41;12.00;99.90
18047;DHT22;9148;51.454;13.862;2023-04-01T13:35:38;12.00;99.90
18047;DHT22;9148;51.454;13.862;2023-04-01T13:47:49;11.90;99.90
18047;DHT22;9148;51.454;13.862;2023-04-01T13:53:50;12.00;99.90
18047;DHT22;9148;51.454;13.862;2023-04-01T13:57:02;12.00;99.90
18047;DHT22;9148;51.454;13.862;2023-04-01T14:00:03;12.10;99.90
18047;DHT22;9148;51.454;13.862;2023-04-01T14:02:49;12.20;99.90
18047;DHT22;9148;51.454;13.862;2023-04-01T14:05:42;12.30;99.90
18047;DHT22;9148;51.454;13.862;2023-04-01T14:11:56;12.40;99.90
18047;DHT22;9148;51.454;13.862;2023-04-01T14:32:24;13.00;99.90
18047;DHT22;9148;51.454;13.862;2023-04-01T14:41:30;13.30;99.90
18047;DHT22;9148;51.454;13.862;2023-04-01T14:50:18;13.50;99.90
18047;DHT22;9148;51.454;13.862;2023-04-01T14:53:40;13.50;99.90
18047;DHT22;9148;51.454;13.862;2023-04-01T14:55:53;13.50;99.90
18047;DHT22;9148;51.454;13.862;2023-04-01T14:58:47;13.60;99.90
18047;DHT22;9148;51.454;13.862;2023-04-01T15:01:23;13.60;99.90
18047;DHT22;9148;51.454;13.862;2023-04-01T15:09:48;13.60;99.90
18047;DHT22;9148;51.454;13.862;2023-04-01T15:12:40;13.60;99.90
18047;DHT22;9148;51.454;13.862;2023-04-01T15:22:25;13.60;99.90
18047;DHT22;9148;51.454;13.862;2023-04-01T15:25:30;13.60;99.90
18047;DHT22;9148;51.454;13.862;2023-04-01T15:28:24;13.60;99.90
18047;DHT22;9148;51.454;13.862;2023-04-01T15:34:20;13.80;99.90
18047;DHT22;9148;51.454;13.862;2023-04-01T15:40:15;13.50;99.90
18047;DHT22;9148;51.454;13.862;2023-04-01T15:49:27;13.50;99.90
18047;DHT22;9148;51.454;13.862;2023-04-01T15:52:22;13.50;99.90
18047;DHT22;9148;51.454;13.862;2023-04-01T15:55:19;13.40;99.90
18047;DHT22;9148;51.454;13.862;2023-04-01T15:58:03;13.40;99.90
18047;DHT22;9148;51.454;13.862;2023-04-01T16:00:58;13.30;99.90
18047;DHT22;9148;51.454;13.862;2023-04-01T16:03:52;13.30;99.90
18047;DHT22;9148;51.454;13.862;2023-04-01T16:06:45;13.20;99.90
18047;DHT22;9148;51.454;13.862;2023-04-01T16:18:09;13.00;99.90
18047;DHT22;9148;51.454;13.862;2023-04-01T16:20:57;12.90;99.90
18047;DHT22;9148;51.454;13.862;2023-04-01T16:27:44;12.90;99.90
18047;DHT22;9148;51.454;13.862;2023-04-01T16:30:46;12.80;99.90
18047;DHT22;9148;51.454;13.862;2023-04-01T16:33:13;12.80;99.90
18047;DHT22;9148;51.454;13.862;2023-04-01T16:35:54;12.70;99.90
18047;DHT22;9148;51.454;13.862;2023-04-01T16:44:26;12.60;99.90
18047;DHT22;9148;51.454;13.862;2023-04-01T16:46:58;12.50;99.90
18047;DHT22;9148;51.454;13.862;2023-04-01T16:49:47;12.50;99.90
18047;DHT22;9148;51.454;13.862;2023-04-01T16:58:33;12.30;99.90
18047;DHT22;9148;51.454;13.862;2023-04-01T17:01:12;12.20;99.90
18047;DHT22;9148;51.454;13.862;2023-04-01T17:03:46;12.20;99.90
18047;DHT22;9148;51.454;13.862;2023-04-01T17:12:19;11.90;99.90
18047;DHT22;9148;51.454;13.862;2023-04-01T17:18:32;11.80;99.90
18047;DHT22;9148;51.454;13.862;2023-04-01T17:24:25;11.60;99.90
18047;DHT22;9148;51.454;13.862;2023-04-01T17:27:20;11.50;99.90
18047;DHT22;9148;51.454;13.862;2023-04-01T17:33:06;11.40;99.90
18047;DHT22;9148;51.454;13.862;2023-04-01T17:39:24;11.20;99.90
18047;DHT22;9148;51.454;13.862;2023-04-01T17:42:13;11.20;99.90
18047;DHT22;9148;51.454;13.862;2023-04-01T17:47:41;11.10;99.90
18047;DHT22;9148;51.454;13.862;2023-04-01T17:53:21;11.00;99.90
18047;DHT22;9148;51.454;13.862;2023-04-01T17:56:08;11.00;99.90
18047;DHT22;9148;51.454;13.862;2023-04-01T17:59:07;10.90;99.90
18047;DHT22;9148;51.454;13.862;2023-04-01T18:02:37;10.80;99.90
18047;DHT22;9148;51.454;13.862;2023-04-01T18:08:05;10.80;99.90
18047;DHT22;9148;51.454;13.862;2023-04-01T18:10:51;10.80;99.90
18047;DHT22;9148;51.454;13.862;2023-04-01T18:16:59;10.80;99.90
18047;DHT22;9148;51.454;13.862;2023-04-01T18:23:29;10.80;99.90
18047;DHT22;9148;51.454;13.862;2023-04-01T18:26:20;10.70;99.90
18047;DHT22;9148;51.454;13.862;2023-04-01T18:29:02;10.70;99.90
18047;DHT22;9148;51.454;13.862;2023-04-01T18:31:38;10.70;99.90
18047;DHT22;9148;51.454;13.862;2023-04-01T18:34:16;10.70;99.90
18047;DHT22;9148;51.454;13.862;2023-04-01T18:36:56;10.70;99.90
18047;DHT22;9148;51.454;13.862;2023-04-01T18:39:39;10.60;99.90
18047;DHT22;9148;51.454;13.862;2023-04-01T18:42:28;10.60;99.90
18047;DHT22;9148;51.454;13.862;2023-04-01T18:48:33;10.50;99.90
18047;DHT22;9148;51.454;13.862;2023-04-01T18:51:11;10.50;99.90
18047;DHT22;9148;51.454;13.862;2023-04-01T18:53:50;10.50;99.90
18047;DHT22;9148;51.454;13.862;2023-04-01T18:56:32;10.40;99.90
18047;DHT22;9148;51.454;13.862;2023-04-01T19:02:02;10.40;99.90
18047;DHT22;9148;51.454;13.862;2023-04-01T19:10:27;10.20;99.90
18047;DHT22;9148;51.454;13.862;2023-04-01T19:22:51;10.00;99.90
18047;DHT22;9148;51.454;13.862;2023-04-01T19:25:44;10.00;99.90
18047;DHT22;9148;51.454;13.862;2023-04-01T19:28:20;9.90;99.90
18047;DHT22;9148;51.454;13.862;2023-04-01T19:30:57;9.90;99.90
18047;DHT22;9148;51.454;13.862;2023-04-01T19:36:19;9.90;99.90
18047;DHT22;9148;51.454;13.862;2023-04-01T19:39:15;9.80;99.90
18047;DHT22;9148;51.454;13.862;2023-04-01T19:45:19;9.80;99.90
18047;DHT22;9148;51.454;13.862;2023-04-01T19:48:02;9.70;99.90
18047;DHT22;9148;51.454;13.862;2023-04-01T19:50:44;9.60;99.90
18047;DHT22;9148;51.454;13.862;2023-04-01T19:56:43;9.60;99.90
18047;DHT22;9148;51.454;13.862;2023-04-01T19:59:33;9.60;99.90
18047;DHT22;9148;51.454;13.862;2023-04-01T20:04:48;9.60;99.90
18047;DHT22;9148;51.454;13.862;2023-04-01T20:07:59;9.60;99.90
18047;DHT22;9148;51.454;13.862;2023-04-01T20:10:24;9.60;99.90
18047;DHT22;9148;51.454;13.862;2023-04-01T20:16:06;9.50;99.90
18047;DHT22;9148;51.454;13.862;2023-04-01T20:26:26;9.40;99.90
18047;DHT22;9148;51.454;13.862;2023-04-01T20:32:04;9.40;99.90
18047;DHT22;9148;51.454;13.862;2023-04-01T20:37:50;9.30;99.90
18047;DHT22;9148;51.454;13.862;2023-04-01T20:40:44;9.30;99.90
18047;DHT22;9148;51.454;13.862;2023-04-01T20:43:42;9.30;99.90
18047;DHT22;9148;51.454;13.862;2023-04-01T20:46:31;9.20;99.90
18047;DHT22;9148;51.454;13.862;2023-04-01T20:52:17;9.10;99.90
18047;DHT22;9148;51.454;13.862;2023-04-01T20:55:14;9.10;99.90
18047;DHT22;9148;51.454;13.862;2023-04-01T20:58:10;9.00;99.90
18047;DHT22;9148;51.454;13.862;2023-04-01T21:00:57;9.00;99.90
18047;DHT22;9148;51.454;13.862;2023-04-01T21:04:00;8.90;99.90
18047;DHT22;9148;51.454;13.862;2023-04-01T21:07:02;8.90;99.90
18047;DHT22;9148;51.454;13.862;2023-04-01T21:10:05;8.90;99.90
18047;DHT22;9148;51.454;13.862;2023-04-01T21:12:53;8.80;99.90
18047;DHT22;9148;51.454;13.862;2023-04-01T21:24:39;8.60;99.90
18047;DHT22;9148;51.454;13.862;2023-04-01T21:36:42;8.50;99.90
18047;DHT22;9148;51.454;13.862;2023-04-01T21:39:22;8.40;99.90
18047;DHT22;9148;51.454;13.862;2023-04-01T21:42:24;8.40;99.90
18047;DHT22;9148;51.454;13.862;2023-04-01T21:51:12;8.20;99.90
18047;DHT22;9148;51.454;13.862;2023-04-01T21:54:07;8.20;99.90
18047;DHT22;9148;51.454;13.862;2023-04-01T21:57:12;8.10;99.90
18047;DHT22;9148;51.454;13.862;2023-04-01T22:00:24;8.00;99.90
18047;DHT22;9148;51.454;13.862;2023-04-01T22:05:38;7.90;99.90
18047;DHT22;9148;51.454;13.862;2023-04-01T22:08:30;7.90;99.90
18047;DHT22;9148;51.454;13.862;2023-04-01T22:11:20;7.80;99.90
18047;DHT22;9148;51.454;13.862;2023-04-01T22:22:27;7.60;99.90
18047;DHT22;9148;51.454;13.862;2023-04-01T22:25:20;7.60;99.90
18047;DHT22;9148;51.454;13.862;2023-04-01T22:30:40;7.60;99.90
18047;DHT22;9148;51.454;13.862;2023-04-01T22:33:12;7.80;99.90
18047;DHT22;9148;51.454;13.862;2023-04-01T22:38:44;7.60;99.90
18047;DHT22;9148;51.454;13.862;2023-04-01T22:41:56;7.50;99.90
18047;DHT22;9148;51.454;13.862;2023-04-01T22:47:37;7.40;99.90
18047;DHT22;9148;51.454;13.862;2023-04-01T22:52:47;7.30;99.90
18047;DHT22;9148;51.454;13.862;2023-04-01T22:55:30;7.30;99.90
18047;DHT22;9148;51.454;13.862;2023-04-01T22:58:17;7.70;99.90
18047;DHT22;9148;51.454;13.862;2023-04-01T23:00:49;7.20;99.90
18047;DHT22;9148;51.454;13.862;2023-04-01T23:03:39;7.20;99.90
18047;DHT22;9148;51.454;13.862;2023-04-01T23:06:10;7.30;99.90
18047;DHT22;9148;51.454;13.862;2023-04-01T23:09:08;7.30;99.90
18047;DHT22;9148;51.454;13.862;2023-04-01T23:11:42;7.00;99.90
18047;DHT22;9148;51.454;13.862;2023-04-01T23:17:01;7.00;99.90
18047;DHT22;9148;51.454;13.862;2023-04-01T23:19:49;7.00;99.90
18047;DHT22;9148;51.454;13.862;2023-04-01T23:22:38;7.00;99.90
18047;DHT22;9148;51.454;13.862;2023-04-01T23:25:27;7.00;99.90
18047;DHT22;9148;51.454;13.862;2023-04-01T23:33:22;7.30;99.90
18047;DHT22;9148;51.454;13.862;2023-04-01T23:35:57;6.80;99.90
18047;DHT22;9148;51.454;13.862;2023-04-01T23:38:35;6.80;99.90
18047;DHT22;9148;51.454;13.862;2023-04-01T23:41:04;6.70;99.90
18047;DHT22;9148;51.454;13.862;2023-04-01T23:43:33;6.60;99.90
18047;DHT22;9148;51.454;13.862;2023-04-01T23:46:02;7.10;99.90
18047;DHT22;9148;51.454;13.862;2023-04-01T23:48:43;6.70;99.90
18047;DHT22;9148;51.454;13.862;2023-04-01T23:51:22;6.60;99.90
18047;DHT22;9148;51.454;13.862;2023-04-01T23:54:11;7.10;99.90
18047;DHT22;9148;51.454;13.862;2023-04-01T23:56:52;6.60;99.90
18047;DHT22;9148;51.454;13.862;2023-04-01T23:59:28;6.80;99.90
